Time;durP1;ratioP1;P1;durP2;ratioP2;P2;SDS_P1;SDS_P2;PMS_P1;PMS_P2;Temp;Humidity;BMP_temperature;BMP_pressure;BME280_temperature;BME280_humidity;BME280_pressure;Samples;Min_cycle;Max_cycle;Signal;HPM_P1;HPM_P2
2021/05/09 00:01:13;;;;;;;6.53;3.60;;;;;;;7.34;59.07;101928.34;1843983;76;25563;-57
2021/05/09 00:03:49;;;;;;;9.00;3.90;;;;;;;7.17;58.57;101932.44;1817564;78;32506;-57
2021/05/09 00:06:26;;;;;;;4.90;3.33;;;;;;;7.26;59.69;101933.72;1869677;76;27510;-58
2021/05/09 00:09:04;;;;;;;6.13;3.80;;;;;;;7.24;59.79;101936.95;1864732;76;36002;-59
2021/05/09 00:11:41;;;;;;;7.67;4.17;;;;;;;7.24;59.83;101935.61;1844046;76;25537;-59
2021/05/09 00:14:17;;;;;;;5.50;3.60;;;;;;;6.99;59.38;101931.14;1863301;76;32665;-58
2021/05/09 00:16:54;;;;;;;5.33;3.87;;;;;;;7.04;59.87;101933.11;1828246;76;27819;-57
2021/05/09 00:19:30;;;;;;;6.70;3.25;;;;;;;7.03;60.04;101939.41;1817579;78;27823;-58
2021/05/09 00:22:07;;;;;;;6.07;3.17;;;;;;;7.08;60.57;101939.64;1864605;76;32417;-57
2021/05/09 00:24:43;;;;;;;7.92;3.25;;;;;;;7.16;60.78;101944.09;1869689;76;27725;-58
2021/05/09 00:27:20;;;;;;;11.18;3.37;;;;;;;7.19;60.11;101938.09;1828267;76;32642;-58
2021/05/09 00:29:57;;;;;;;6.97;3.22;;;;;;;7.21;60.14;101944.69;1785172;78;27826;-58
2021/05/09 00:32:34;;;;;;;7.17;4.00;;;;;;;7.25;59.72;101942.70;1864625;76;34695;-58
2021/05/09 00:35:12;;;;;;;4.83;3.60;;;;;;;7.25;59.80;101943.58;1864494;76;38573;-59
2021/05/09 00:37:48;;;;;;;3.72;3.27;;;;;;;7.21;59.54;101950.04;1843985;76;25504;-57
2021/05/09 00:40:25;;;;;;;11.15;3.80;;;;;;;6.96;59.51;101948.72;1869706;76;27716;-57
2021/05/09 00:43:01;;;;;;;8.28;4.12;;;;;;;6.97;60.07;101941.55;1831034;77;27937;-59
2021/05/09 00:45:38;;;;;;;7.47;3.77;;;;;;;6.87;60.02;101952.75;1828230;76;28365;-59
2021/05/09 00:48:16;;;;;;;9.98;3.30;;;;;;;6.87;60.84;101950.56;1869740;76;27654;-58
2021/05/09 00:50:53;;;;;;;6.72;3.22;;;;;;;6.85;61.55;101952.45;1904742;74;25600;-58
2021/05/09 00:53:30;;;;;;;9.45;3.70;;;;;;;6.64;61.40;101950.45;1828191;76;38140;-58
2021/05/09 00:56:07;;;;;;;7.55;3.17;;;;;;;6.72;61.76;101950.91;1844129;76;25502;-58
2021/05/09 00:58:47;;;;;;;6.55;2.98;;;;;;;6.58;61.60;101953.86;1844160;76;25562;-58
2021/05/09 01:01:25;;;;;;;7.12;3.30;;;;;;;6.45;61.75;101957.25;1844003;76;25623;-59
2021/05/09 01:04:04;;;;;;;5.90;3.27;;;;;;;6.28;61.83;101958.97;1886095;76;25536;-58
2021/05/09 01:06:44;;;;;;;8.78;3.27;;;;;;;6.20;62.09;101961.17;1844091;76;25643;-58
2021/05/09 01:09:20;;;;;;;11.78;2.98;;;;;;;6.15;62.30;101966.75;1844077;76;25505;-58
2021/05/09 01:11:57;;;;;;;8.57;3.57;;;;;;;6.13;62.37;101963.77;1869820;76;32224;-58
2021/05/09 01:14:34;;;;;;;5.90;3.25;;;;;;;6.28;62.98;101963.46;1860237;76;27843;-57
2021/05/09 01:17:12;;;;;;;7.20;3.55;;;;;;;6.39;63.19;101959.28;1828163;76;27739;-59
2021/05/09 01:19:48;;;;;;;7.90;4.08;;;;;;;6.40;62.43;101962.36;1833284;78;25643;-59
2021/05/09 01:22:25;;;;;;;9.88;4.75;;;;;;;6.26;62.23;101960.88;1871100;74;27735;-58
2021/05/09 01:25:07;;;;;;;8.90;4.08;;;;;;;6.36;61.95;101967.94;1843947;76;25642;-58
2021/05/09 01:27:44;;;;;;;5.12;3.33;;;;;;;6.19;61.64;101964.78;1844115;76;25453;-58
2021/05/09 01:30:22;;;;;;;6.35;4.22;;;;;;;6.06;61.65;101971.22;1864588;76;27687;-58
2021/05/09 01:32:58;;;;;;;6.47;4.03;;;;;;;6.05;61.93;101970.86;1844124;76;25609;-57
2021/05/09 01:35:35;;;;;;;8.77;4.50;;;;;;;5.91;61.84;101977.70;1831149;77;34768;-58
2021/05/09 01:38:13;;;;;;;10.68;3.95;;;;;;;5.93;62.36;101977.17;1843908;76;25291;-56
2021/05/09 01:40:49;;;;;;;8.40;3.80;;;;;;;5.84;62.21;101982.08;1828156;76;28264;-58
2021/05/09 01:43:37;;;;;;;8.00;4.00;;;;;;;5.95;63.02;101983.30;1869697;76;27837;-58
2021/05/09 01:46:14;;;;;;;6.05;3.90;;;;;;;6.07;63.03;101985.86;1844000;76;25642;-58
2021/05/09 01:48:51;;;;;;;7.70;3.40;;;;;;;6.04;62.91;101987.34;1869738;76;32555;-58
2021/05/09 01:51:28;;;;;;;8.77;4.20;;;;;;;6.23;63.04;101981.06;1834823;76;28304;-58
2021/05/09 01:54:05;;;;;;;5.30;4.03;;;;;;;6.33;62.26;101986.80;1828344;76;34742;-58
2021/05/09 01:56:42;;;;;;;7.62;4.28;;;;;;;6.47;61.88;101984.30;1844020;76;25632;-59
2021/05/09 01:59:18;;;;;;;9.47;4.90;;;;;;;6.36;61.53;101990.66;1864635;76;32557;-56
2021/05/09 02:01:56;;;;;;;6.72;4.53;;;;;;;6.46;61.33;101989.24;1843942;76;25699;-58
2021/05/09 02:04:37;;;;;;;11.30;6.65;;;;;;;6.32;61.12;101988.62;1844138;76;25700;-58
2021/05/09 02:07:16;;;;;;;8.28;4.80;;;;;;;6.15;61.18;101993.95;1844093;76;25619;-57
2021/05/09 02:09:54;;;;;;;10.78;4.47;;;;;;;5.95;61.15;102002.45;1886060;76;25548;-57
2021/05/09 02:12:31;;;;;;;11.05;4.80;;;;;;;5.80;61.30;102004.06;1864543;76;27761;-57
2021/05/09 02:15:10;;;;;;;7.35;4.28;;;;;;;5.84;62.30;102008.33;1843058;76;25301;-58
2021/05/09 02:17:47;;;;;;;10.45;4.70;;;;;;;5.73;62.16;102009.31;1844100;76;25508;-57
2021/05/09 02:20:25;;;;;;;13.15;3.70;;;;;;;5.70;62.73;102015.67;1844064;76;25533;-56
2021/05/09 02:23:03;;;;;;;9.28;4.00;;;;;;;5.64;62.85;102020.84;1884358;76;25569;-59
2021/05/09 02:25:40;;;;;;;6.42;4.42;;;;;;;5.59;62.72;102024.20;1844022;76;25588;-58
2021/05/09 02:28:18;;;;;;;10.68;4.42;;;;;;;5.56;63.24;102019.00;1844072;76;25592;-56
2021/05/09 02:30:55;;;;;;;6.97;4.22;;;;;;;5.54;62.84;102028.88;1886100;75;25551;-57
2021/05/09 02:33:32;;;;;;;8.93;3.85;;;;;;;5.55;63.18;102028.43;1869931;76;27960;-57
2021/05/09 02:36:08;;;;;;;7.53;3.72;;;;;;;5.72;63.37;102032.50;1817501;78;32293;-58
2021/05/09 02:38:45;;;;;;;7.22;3.55;;;;;;;5.88;63.01;102039.27;1880715;76;25282;-57
2021/05/09 02:41:22;;;;;;;12.20;4.45;;;;;;;5.88;62.48;102043.77;1869860;76;27778;-57
2021/05/09 02:43:58;;;;;;;8.45;3.90;;;;;;;6.01;62.26;102046.73;1828217;76;27789;-58
2021/05/09 02:46:35;;;;;;;8.48;4.65;;;;;;;6.11;62.37;102051.54;1864601;76;27723;-58
2021/05/09 02:49:11;;;;;;;10.23;4.90;;;;;;;6.19;62.37;102055.63;1869787;76;27940;-58
2021/05/09 02:51:49;;;;;;;9.00;4.53;;;;;;;6.21;62.20;102056.43;1880849;76;26191;-56
2021/05/09 02:54:26;;;;;;;9.20;4.28;;;;;;;6.01;62.08;102055.59;1886096;76;25671;-56
2021/05/09 02:57:04;;;;;;;6.80;4.08;;;;;;;5.90;62.01;102065.45;1886077;76;25935;-56
2021/05/09 02:59:40;;;;;;;14.25;4.55;;;;;;;5.79;62.35;102062.41;1886009;76;25555;-58
2021/05/09 03:02:17;;;;;;;11.53;5.23;;;;;;;5.68;62.50;102071.42;1864523;76;35134;-59
2021/05/09 03:04:54;;;;;;;8.70;5.03;;;;;;;5.72;62.59;102072.55;1864560;76;28198;-59
2021/05/09 03:07:31;;;;;;;9.85;4.47;;;;;;;5.85;64.57;102074.61;1864540;76;27713;-56
2021/05/09 03:10:09;;;;;;;8.67;4.43;;;;;;;5.93;63.70;102081.33;1864493;76;27769;-58
2021/05/09 03:12:52;;;;;;;8.23;4.70;;;;;;;6.06;64.21;102078.08;1842000;76;25574;-58
2021/05/09 03:15:30;;;;;;;7.35;4.67;;;;;;;6.01;63.96;102086.80;1843913;76;25557;-58
2021/05/09 03:18:06;;;;;;;8.45;4.60;;;;;;;5.99;63.73;102084.63;1869709;76;27748;-57
2021/05/09 03:20:43;;;;;;;10.08;4.72;;;;;;;6.13;64.45;102086.22;1828219;76;38135;-58
2021/05/09 03:23:19;;;;;;;8.00;4.67;;;;;;;6.25;64.01;102085.59;1816321;77;38285;-57
2021/05/09 03:25:56;;;;;;;9.83;5.00;;;;;;;6.37;63.80;102081.93;1864517;75;34768;-58
2021/05/09 03:28:33;;;;;;;8.28;5.40;;;;;;;6.44;63.23;102086.50;1869893;76;32584;-58
2021/05/09 03:31:09;;;;;;;14.53;5.00;;;;;;;6.49;63.24;102089.80;1886089;76;25644;-57
2021/05/09 03:33:46;;;;;;;14.03;6.58;;;;;;;6.32;63.26;102088.84;1828331;76;28337;-56
2021/05/09 03:36:23;;;;;;;6.87;5.22;;;;;;;6.38;63.03;102095.69;1864554;76;35180;-57
2021/05/09 03:38:59;;;;;;;10.55;4.97;;;;;;;6.39;63.27;102100.09;1832425;77;27793;-57
2021/05/09 03:41:35;;;;;;;6.90;4.53;;;;;;;6.45;63.35;102100.27;1869751;76;27346;-58
2021/05/09 03:44:12;;;;;;;10.88;4.60;;;;;;;6.53;63.26;102096.25;1869853;76;32585;-56
2021/05/09 03:46:53;;;;;;;9.90;4.47;;;;;;;6.66;63.52;102105.00;1828126;76;28287;-61
2021/05/09 03:49:31;;;;;;;11.22;4.53;;;;;;;6.76;63.14;102105.39;1840496;76;25708;-63
2021/05/09 03:52:18;;;;;;;12.65;4.50;;;;;;;6.62;62.97;102112.31;1870636;75;25630;-59
2021/05/09 03:54:58;;;;;;;8.70;4.90;;;;;;;6.57;62.71;102113.00;1843807;76;25607;-62
2021/05/09 03:57:35;;;;;;;12.95;5.05;;;;;;;6.49;62.51;102120.09;1843844;76;25620;-61
2021/05/09 04:00:25;;;;;;;8.80;4.92;;;;;;;6.45;62.73;102117.64;1841960;76;25584;-61
2021/05/09 04:03:32;;;;;;;11.50;4.40;;;;;;;6.44;62.76;102115.91;1885604;76;25964;-62
2021/05/09 04:06:10;;;;;;;7.92;4.37;;;;;;;6.46;62.68;102124.70;1870753;75;25624;-60
2021/05/09 04:08:48;;;;;;;9.73;4.45;;;;;;;6.45;62.67;102122.99;1880734;76;25619;-60
2021/05/09 04:11:31;;;;;;;11.95;4.08;;;;;;;6.47;62.29;102119.30;1773167;79;25271;-59
2021/05/09 04:14:13;;;;;;;9.33;4.70;;;;;;;6.50;62.01;102124.47;1823354;76;25583;-63
2021/05/09 04:16:56;;;;;;;8.23;4.75;;;;;;;6.54;62.00;102127.88;1833158;78;25577;-64
2021/05/09 04:19:33;;;;;;;13.65;4.80;;;;;;;6.57;61.87;102133.05;1843986;76;25564;-60
2021/05/09 04:22:23;;;;;;;10.03;4.55;;;;;;;6.61;61.86;102132.42;1770549;78;25555;-59
2021/05/09 04:25:01;;;;;;;9.55;3.98;;;;;;;6.65;61.73;102135.36;1885990;76;26285;-60
2021/05/09 04:27:40;;;;;;;9.20;3.47;;;;;;;6.68;61.26;102145.42;1837716;77;25692;-59
2021/05/09 04:30:19;;;;;;;7.55;3.85;;;;;;;6.69;60.72;102151.17;1848182;77;25527;-59
2021/05/09 04:33:03;;;;;;;10.15;3.30;;;;;;;6.73;60.58;102144.70;1843749;76;25317;-59
2021/05/09 04:35:45;;;;;;;16.57;7.25;;;;;;;6.77;60.37;102145.42;1843936;76;25604;-59
2021/05/09 04:38:22;;;;;;;6.95;3.98;;;;;;;6.76;59.88;102151.73;1843931;76;25587;-56
2021/05/09 04:40:58;;;;;;;9.43;3.80;;;;;;;6.78;59.53;102157.84;1827963;76;28337;-57
2021/05/09 04:43:37;;;;;;;9.37;4.07;;;;;;;6.87;59.47;102152.52;1864479;76;38677;-58
2021/05/09 04:46:13;;;;;;;7.80;3.83;;;;;;;6.99;59.00;102157.22;1838379;78;25336;-57
2021/05/09 04:48:50;;;;;;;8.93;3.83;;;;;;;7.02;58.96;102158.91;1864248;76;32938;-57
2021/05/09 04:51:26;;;;;;;8.50;4.12;;;;;;;7.18;59.01;102157.61;1869700;76;27727;-58
2021/05/09 04:54:06;;;;;;;11.22;3.90;;;;;;;7.36;58.70;102161.16;1844065;76;25588;-58
2021/05/09 04:56:42;;;;;;;7.83;3.15;;;;;;;7.39;58.60;102160.12;1844105;76;25579;-56
2021/05/09 04:59:20;;;;;;;6.75;4.10;;;;;;;7.45;58.36;102168.70;1844147;76;25467;-58
2021/05/09 05:01:56;;;;;;;12.20;4.90;;;;;;;7.43;57.67;102169.25;1864685;75;33282;-58
2021/05/09 05:04:33;;;;;;;7.62;3.65;;;;;;;7.55;56.88;102169.06;1828194;76;28298;-58
2021/05/09 05:07:09;;;;;;;9.25;3.85;;;;;;;7.67;56.45;102172.89;1864636;76;27784;-56
2021/05/09 05:09:46;;;;;;;11.37;3.93;;;;;;;7.80;55.90;102173.97;1828356;76;38518;-58
2021/05/09 05:12:22;;;;;;;7.65;3.45;;;;;;;7.90;55.85;102176.14;1869740;76;27546;-58
2021/05/09 05:15:00;;;;;;;12.20;4.12;;;;;;;8.00;55.43;102178.71;1843322;76;25542;-56
2021/05/09 05:17:36;;;;;;;9.40;3.70;;;;;;;7.96;55.68;102182.50;1822614;78;27817;-57
2021/05/09 05:20:15;;;;;;;11.25;4.40;;;;;;;8.09;55.54;102184.02;1828253;76;34388;-59
2021/05/09 05:22:52;;;;;;;6.78;3.92;;;;;;;8.15;55.23;102193.09;1831491;76;25564;-58
2021/05/09 05:25:28;;;;;;;7.67;4.53;;;;;;;8.07;55.69;102186.80;1828354;76;31677;-56
2021/05/09 05:28:06;;;;;;;9.33;4.13;;;;;;;8.13;55.32;102193.64;1828305;76;32451;-58
2021/05/09 05:30:45;;;;;;;6.70;3.77;;;;;;;8.17;55.10;102183.61;1844160;76;25564;-58
2021/05/09 05:33:34;;;;;;;7.33;3.70;;;;;;;8.07;55.38;102196.17;1844120;76;25713;-56
2021/05/09 05:36:11;;;;;;;7.78;3.87;;;;;;;8.08;55.53;102185.85;1886064;76;25535;-57
2021/05/09 05:38:47;;;;;;;6.77;3.73;;;;;;;8.16;55.55;102184.06;1864505;76;34738;-58
2021/05/09 05:41:24;;;;;;;8.70;4.10;;;;;;;8.32;55.30;102188.59;1828193;76;32657;-58
2021/05/09 05:44:00;;;;;;;8.60;4.17;;;;;;;8.45;54.91;102193.17;1864547;76;28260;-58
2021/05/09 05:46:38;;;;;;;11.88;4.37;;;;;;;8.57;54.60;102190.29;1864634;76;28242;-58
2021/05/09 05:49:14;;;;;;;13.45;3.55;;;;;;;8.71;54.50;102193.98;1870792;75;25575;-58
2021/05/09 05:51:51;;;;;;;7.40;3.75;;;;;;;8.67;54.54;102192.44;1822317;78;27879;-56
2021/05/09 05:54:28;;;;;;;8.45;4.30;;;;;;;8.80;54.44;102193.93;1869533;76;32795;-58
2021/05/09 05:57:05;;;;;;;6.97;3.52;;;;;;;8.88;54.44;102193.86;1844077;76;25508;-58
2021/05/09 05:59:41;;;;;;;13.68;4.60;;;;;;;8.91;54.71;102199.05;1880637;76;25609;-56
2021/05/09 06:02:17;;;;;;;8.87;4.00;;;;;;;8.94;54.17;102191.29;1828373;76;29130;-56
2021/05/09 06:04:54;;;;;;;12.03;4.50;;;;;;;9.10;53.84;102192.59;1864498;76;27774;-56
2021/05/09 06:07:31;;;;;;;10.88;5.17;;;;;;;9.23;53.53;102191.38;1879141;75;38071;-58
2021/05/09 06:10:10;;;;;;;7.70;4.37;;;;;;;9.34;53.34;102183.55;1844210;76;25330;-56
2021/05/09 06:12:46;;;;;;;10.72;4.17;;;;;;;9.35;53.29;102185.28;1833124;78;25564;-58
2021/05/09 06:15:24;;;;;;;9.58;3.55;;;;;;;9.33;51.90;102191.22;1879258;76;25535;-58
2021/05/09 06:18:00;;;;;;;6.28;3.62;;;;;;;9.43;51.87;102187.97;1880749;76;25593;-56
2021/05/09 06:20:37;;;;;;;9.98;4.00;;;;;;;9.52;51.83;102199.49;1828029;76;27903;-56
2021/05/09 06:23:20;;;;;;;7.87;4.20;;;;;;;9.65;51.45;102196.42;1769112;78;38926;-57
2021/05/09 06:25:57;;;;;;;6.22;3.40;;;;;;;9.83;50.64;102205.17;1844093;76;25599;-58
2021/05/09 06:28:35;;;;;;;5.37;2.40;;;;;;;9.86;51.23;102208.14;1864449;76;32286;-59
2021/05/09 06:31:11;;;;;;;5.80;3.25;;;;;;;9.99;49.38;102203.73;1844086;76;25580;-57
2021/05/09 06:33:47;;;;;;;6.87;3.72;;;;;;;10.00;48.57;102209.96;1828216;76;31142;-58
2021/05/09 06:36:24;;;;;;;3.73;2.40;;;;;;;10.14;48.44;102206.39;1864460;76;32755;-58
2021/05/09 06:39:03;;;;;;;8.85;2.30;;;;;;;10.29;47.60;102204.05;1885939;76;25694;-56
2021/05/09 06:41:39;;;;;;;3.83;2.62;;;;;;;10.32;47.86;102202.98;1848162;77;25679;-57
2021/05/09 06:44:16;;;;;;;3.85;2.37;;;;;;;10.34;47.93;102204.64;1864539;75;27645;-59
2021/05/09 06:46:53;;;;;;;3.95;2.08;;;;;;;10.48;47.00;102206.93;1844085;76;25171;-58
2021/05/09 06:49:30;;;;;;;4.30;2.42;;;;;;;10.48;46.87;102204.23;1828133;76;27730;-59
2021/05/09 06:52:07;;;;;;;6.57;2.70;;;;;;;10.64;45.38;102206.80;1822263;77;32486;-58
2021/05/09 06:54:43;;;;;;;6.78;2.47;;;;;;;10.74;45.81;102201.19;1785045;78;27742;-58
2021/05/09 06:57:19;;;;;;;6.30;2.70;;;;;;;10.88;45.87;102198.04;1817642;77;32334;-57
2021/05/09 06:59:56;;;;;;;11.25;2.60;;;;;;;11.01;45.23;102202.98;1828211;76;38062;-58
2021/05/09 07:02:33;;;;;;;6.30;2.65;;;;;;;11.19;46.13;102200.86;1864583;76;28297;-58
2021/05/09 07:05:10;;;;;;;3.67;2.35;;;;;;;11.35;46.24;102203.83;1869656;75;38080;-58
2021/05/09 07:07:51;;;;;;;7.55;2.70;;;;;;;11.49;45.21;102205.57;1844163;76;25556;-58
2021/05/09 07:10:28;;;;;;;4.12;2.58;;;;;;;11.46;43.87;102210.70;1844135;76;25567;-58
2021/05/09 07:13:04;;;;;;;7.30;2.57;;;;;;;11.47;44.59;102210.23;1857462;75;32560;-57
2021/05/09 07:15:42;;;;;;;7.63;2.90;;;;;;;11.61;44.13;102211.97;1808398;78;32746;-58
2021/05/09 07:18:22;;;;;;;7.20;2.42;;;;;;;11.70;43.37;102213.98;1833382;78;25312;-56
2021/05/09 07:20:59;;;;;;;3.92;2.58;;;;;;;11.75;42.74;102209.99;1848374;77;25790;-59
2021/05/09 07:23:38;;;;;;;4.72;2.12;;;;;;;11.79;43.42;102213.83;1862520;76;25567;-58
2021/05/09 07:26:15;;;;;;;3.47;2.30;;;;;;;11.84;43.28;102214.36;1886085;76;25592;-58
2021/05/09 07:28:52;;;;;;;5.70;2.67;;;;;;;11.84;43.01;102213.89;1864435;76;32336;-58
2021/05/09 07:31:28;;;;;;;6.13;2.47;;;;;;;11.97;42.51;102204.46;1864680;76;27663;-57
2021/05/09 07:34:08;;;;;;;2.37;1.90;;;;;;;12.11;42.82;102205.29;1844111;76;25470;-58
2021/05/09 07:36:45;;;;;;;5.15;2.10;;;;;;;12.16;43.31;102203.98;1886056;76;25594;-57
2021/05/09 07:39:21;;;;;;;10.60;2.45;;;;;;;12.23;43.30;102200.86;1828257;76;35226;-58
2021/05/09 07:41:57;;;;;;;5.85;2.20;;;;;;;12.39;41.98;102210.02;1828212;76;35261;-59
2021/05/09 07:44:34;;;;;;;6.92;2.22;;;;;;;12.51;42.02;102200.53;1817564;78;38102;-58
2021/05/09 07:47:11;;;;;;;6.77;2.70;;;;;;;12.61;40.64;102202.08;1869744;76;28295;-56
2021/05/09 07:49:48;;;;;;;10.38;2.52;;;;;;;12.74;40.88;102205.19;1827533;77;25592;-58
2021/05/09 07:52:25;;;;;;;5.12;2.50;;;;;;;12.78;40.56;102196.73;1869729;76;27905;-57
2021/05/09 07:55:04;;;;;;;7.97;2.22;;;;;;;12.96;40.54;102191.80;1843996;76;25520;-58
2021/05/09 07:57:41;;;;;;;6.90;2.40;;;;;;;13.05;40.21;102194.77;1828040;76;35186;-58
2021/05/09 08:00:20;;;;;;;11.10;2.30;;;;;;;13.19;40.23;102201.31;1862135;76;25558;-58
2021/05/09 08:02:57;;;;;;;6.92;1.62;;;;;;;13.19;39.83;102197.26;1854368;76;25392;-57
2021/05/09 08:05:33;;;;;;;4.97;1.50;;;;;;;13.21;37.20;102199.36;1880592;76;25396;-57
2021/05/09 08:08:10;;;;;;;4.97;1.80;;;;;;;13.35;37.90;102193.39;1822514;78;32650;-57
2021/05/09 08:10:47;;;;;;;6.70;1.83;;;;;;;13.55;36.48;102187.80;1864532;76;38500;-56
2021/05/09 08:13:27;;;;;;;3.52;1.70;;;;;;;13.73;35.41;102193.58;1823022;76;28824;-59
2021/05/09 08:16:10;;;;;;;5.12;1.62;;;;;;;13.81;35.74;102195.67;1809760;77;35242;-59
2021/05/09 08:18:50;;;;;;;4.28;1.60;;;;;;;13.92;35.25;102187.57;1858687;76;25554;-58
2021/05/09 08:21:26;;;;;;;6.03;2.10;;;;;;;13.92;35.24;102186.22;1822530;78;32539;-57
2021/05/09 08:24:03;;;;;;;5.85;1.70;;;;;;;14.13;34.71;102190.86;1824919;76;38229;-59
2021/05/09 08:26:39;;;;;;;11.83;1.50;;;;;;;14.43;34.06;102177.16;1880665;76;25531;-56
2021/05/09 08:29:16;;;;;;;4.90;1.67;;;;;;;14.65;32.57;102181.64;1828053;76;32569;-56
2021/05/09 08:31:53;;;;;;;6.33;2.15;;;;;;;14.80;33.49;102181.73;1828301;76;38555;-58
2021/05/09 08:34:30;;;;;;;2.10;1.25;;;;;;;15.02;33.85;102194.82;1844066;76;25565;-57
2021/05/09 08:37:06;;;;;;;2.62;1.57;;;;;;;15.13;32.44;102186.64;1828168;76;27737;-57
2021/05/09 08:39:43;;;;;;;4.55;1.50;;;;;;;15.29;32.94;102194.29;1869803;76;27906;-58
2021/05/09 08:42:20;;;;;;;4.42;1.57;;;;;;;15.47;32.68;102186.91;1864628;76;34766;-57
2021/05/09 08:44:57;;;;;;;6.78;2.90;;;;;;;15.70;31.83;102187.60;1870708;75;25598;-57
2021/05/09 08:47:42;;;;;;;6.50;1.73;;;;;;;15.83;31.95;102190.09;1864559;76;32742;-57
2021/05/09 08:50:21;;;;;;;6.42;1.50;;;;;;;16.03;31.13;102177.98;1856595;76;25734;-58
2021/05/09 08:52:58;;;;;;;8.40;1.65;;;;;;;16.17;31.13;102174.03;1834252;76;25603;-58
2021/05/09 08:55:34;;;;;;;3.40;1.60;;;;;;;16.25;30.52;102171.48;1864133;75;32129;-58
2021/05/09 08:58:12;;;;;;;9.20;1.93;;;;;;;16.40;31.26;102171.94;1862604;76;32095;-58
2021/05/09 09:00:49;;;;;;;6.13;1.70;;;;;;;16.59;30.28;102167.89;1845078;76;28798;-60
2021/05/09 09:03:26;;;;;;;7.80;1.90;;;;;;;16.79;30.66;102161.11;1816117;77;38707;-61
2021/05/09 09:06:05;;;;;;;6.35;1.45;;;;;;;16.97;28.48;102163.14;1838134;78;25575;-58
2021/05/09 09:08:52;;;;;;;3.70;1.40;;;;;;;16.88;29.47;102164.33;1886080;76;25608;-59
2021/05/09 09:11:29;;;;;;;11.10;1.77;;;;;;;17.02;28.50;102162.19;1886046;76;25484;-58
2021/05/09 09:14:13;;;;;;;7.97;1.37;;;;;;;17.17;29.33;102165.33;1832223;78;25589;-59
2021/05/09 09:17:15;;;;;;;10.93;1.32;;;;;;;17.51;28.52;102157.52;1885927;76;25630;-58
2021/05/09 09:20:15;;;;;;;5.95;1.90;;;;;;;17.67;27.70;102160.95;1885886;76;25570;-58
2021/05/09 09:22:56;;;;;;;7.85;2.17;;;;;;;18.22;26.18;102159.80;1831426;76;25615;-58
2021/05/09 09:25:34;;;;;;;5.72;1.62;;;;;;;18.73;26.61;102169.69;1886138;75;25830;-59
2021/05/09 09:28:11;;;;;;;4.67;2.00;;;;;;;19.10;23.21;102170.01;1848315;77;25419;-59
2021/05/09 09:30:54;;;;;;;3.47;1.47;;;;;;;19.27;24.94;102168.79;1864418;76;31976;-59
2021/05/09 09:33:30;;;;;;;4.42;1.55;;;;;;;19.82;25.43;102170.30;1843869;76;25592;-58
2021/05/09 09:36:12;;;;;;;2.93;1.60;;;;;;;20.48;23.84;102180.13;1810921;78;27929;-58
2021/05/09 09:38:51;;;;;;;9.10;1.80;;;;;;;21.00;21.58;102165.84;1834378;76;25533;-57
2021/05/09 09:41:28;;;;;;;3.10;1.32;;;;;;;21.45;22.40;102169.89;1875277;76;25488;-59
2021/05/09 09:44:11;;;;;;;5.05;1.30;;;;;;;21.34;22.66;102174.34;1838939;76;25586;-59
2021/05/09 09:46:52;;;;;;;2.10;1.10;;;;;;;20.84;22.58;102174.89;1848460;77;25414;-59
2021/05/09 09:49:37;;;;;;;9.98;1.52;;;;;;;20.58;23.92;102171.23;1843878;76;25569;-58
2021/05/09 09:52:14;;;;;;;6.30;1.30;;;;;;;20.30;23.93;102172.03;1833266;78;25612;-58
2021/05/09 09:54:50;;;;;;;3.77;1.52;;;;;;;20.07;23.72;102167.69;1828258;76;33043;-58
2021/05/09 09:57:30;;;;;;;7.28;1.75;;;;;;;19.66;24.31;102169.70;1822488;77;32121;-57
2021/05/09 10:00:12;;;;;;;3.70;1.70;;;;;;;19.46;23.82;102168.55;1886070;76;25597;-57
2021/05/09 10:02:48;;;;;;;3.22;1.20;;;;;;;19.04;24.71;102171.52;1844028;76;25496;-56
2021/05/09 10:05:26;;;;;;;3.58;1.22;;;;;;;19.53;22.71;102167.41;1869782;75;27384;-58
2021/05/09 10:08:02;;;;;;;7.60;1.30;;;;;;;20.49;21.92;102174.48;1864643;75;32291;-58
2021/05/09 10:10:40;;;;;;;4.37;1.30;;;;;;;21.69;21.99;102170.38;1869973;76;34325;-59
2021/05/09 10:13:22;;;;;;;5.30;1.20;;;;;;;22.75;19.97;102163.66;1844074;76;25573;-59
2021/05/09 10:16:00;;;;;;;3.70;1.02;;;;;;;23.64;18.40;102156.11;1844108;76;25601;-57
2021/05/09 10:18:46;;;;;;;2.72;1.50;;;;;;;23.22;19.47;102157.06;1843799;76;25493;-57
2021/05/09 10:21:34;;;;;;;3.50;1.40;;;;;;;24.10;17.25;102152.31;1882339;76;25614;-59
2021/05/09 10:24:23;;;;;;;4.65;1.20;;;;;;;24.07;17.21;102156.27;1849718;76;26195;-58
2021/05/09 10:27:09;;;;;;;5.10;1.40;;;;;;;23.06;18.35;102153.08;1844028;76;25529;-56
2021/05/09 10:29:49;;;;;;;4.22;1.55;;;;;;;22.22;20.19;102147.88;1869691;75;27637;-59
2021/05/09 10:32:36;;;;;;;5.05;1.40;;;;;;;22.06;20.43;102155.66;1844093;76;25564;-58
2021/05/09 10:35:14;;;;;;;1.80;1.32;;;;;;;21.64;19.98;102160.44;1844085;76;25592;-59
2021/05/09 10:37:56;;;;;;;3.58;1.37;;;;;;;21.72;19.57;102158.20;1880772;76;25560;-59
2021/05/09 10:40:41;;;;;;;4.45;1.30;;;;;;;22.00;20.50;102149.00;1848003;77;25573;-58
2021/05/09 10:43:28;;;;;;;7.22;1.30;;;;;;;22.95;19.12;102152.48;1844174;76;26623;-58
2021/05/09 10:46:06;;;;;;;4.97;1.50;;;;;;;23.93;19.20;102139.80;1864266;76;27794;-57
2021/05/09 10:48:43;;;;;;;5.17;1.37;;;;;;;25.16;18.82;102138.42;1843921;76;25500;-59
2021/05/09 10:51:25;;;;;;;2.98;1.40;;;;;;;26.10;16.98;102133.48;1856035;76;27714;-59
2021/05/09 10:54:24;;;;;;;2.20;1.25;;;;;;;27.15;16.28;102123.30;1844010;76;25632;-59
2021/05/09 10:57:00;;;;;;;3.77;1.17;;;;;;;27.60;16.71;102125.88;1844125;76;25501;-59
2021/05/09 10:59:58;;;;;;;4.08;1.30;;;;;;;26.65;16.04;102136.67;1869851;76;34768;-59
2021/05/09 11:02:34;;;;;;;2.72;1.02;;;;;;;26.01;15.25;102130.55;1844024;76;25587;-60
2021/05/09 11:05:11;;;;;;;1.77;1.02;;;;;;;25.96;16.00;102135.81;1843959;76;25608;-58
2021/05/09 11:07:48;;;;;;;4.57;1.40;;;;;;;26.62;15.98;102131.55;1785157;78;35963;-58
2021/05/09 11:10:39;;;;;;;5.40;1.22;;;;;;;27.31;14.91;102122.00;1869873;76;27921;-59
2021/05/09 11:13:15;;;;;;;4.08;1.10;;;;;;;27.71;15.00;102114.66;1834552;76;25573;-59
2021/05/09 11:16:16;;;;;;;8.13;1.60;;;;;;;28.07;14.70;102114.12;1862279;76;29740;-59
2021/05/09 11:19:13;;;;;;;2.17;1.20;;;;;;;27.44;14.57;102110.61;1885932;76;25528;-57
2021/05/09 11:21:56;;;;;;;2.60;1.12;;;;;;;27.94;14.65;102108.61;1843943;76;25640;-59
2021/05/09 11:24:35;;;;;;;2.02;1.60;;;;;;;27.67;14.14;102102.36;1782518;78;25634;-59
2021/05/09 11:27:16;;;;;;;4.35;1.27;;;;;;;27.35;14.25;102098.93;1843930;76;25553;-58
2021/05/09 11:29:53;;;;;;;3.92;1.60;;;;;;;27.73;15.00;102094.05;1844000;76;25529;-58
2021/05/09 11:32:32;;;;;;;4.17;1.15;;;;;;;27.09;15.77;102099.30;1885928;76;25476;-59
2021/05/09 11:35:10;;;;;;;6.42;1.50;;;;;;;27.15;15.63;102097.05;1886086;76;25537;-58
2021/05/09 11:37:46;;;;;;;1.90;1.10;;;;;;;28.15;15.86;102085.88;1886089;76;25538;-57
2021/05/09 11:40:24;;;;;;;2.12;0.90;;;;;;;29.10;14.22;102078.50;1864548;76;27751;-58
2021/05/09 11:43:11;;;;;;;2.98;0.95;;;;;;;29.78;14.17;102090.54;1844026;76;26038;-57
2021/05/09 11:45:47;;;;;;;2.52;1.32;;;;;;;30.24;12.47;102084.04;1864471;76;30552;-60
2021/05/09 11:48:26;;;;;;;5.80;1.17;;;;;;;30.30;11.58;102080.34;1864402;75;27650;-59
2021/05/09 11:51:04;;;;;;;5.40;1.17;;;;;;;29.33;11.99;102087.03;1906851;74;25650;-59
2021/05/09 11:53:40;;;;;;;3.47;1.10;;;;;;;27.83;13.06;102088.59;1825413;77;25584;-57
2021/05/09 11:56:19;;;;;;;2.55;1.20;;;;;;;27.43;14.07;102076.61;1840282;76;28340;-60
2021/05/09 11:58:55;;;;;;;5.08;1.10;;;;;;;28.38;13.13;102079.76;1857123;76;25762;-57
2021/05/09 12:01:35;;;;;;;4.33;1.10;;;;;;;28.94;13.59;102073.04;1855396;76;27669;-60
2021/05/09 12:04:13;;;;;;;1.35;0.90;;;;;;;30.20;11.99;102074.52;1833232;78;25584;-60
2021/05/09 12:06:50;;;;;;;2.45;1.00;;;;;;;30.78;11.68;102066.00;1844002;76;25581;-60
2021/05/09 12:09:30;;;;;;;3.35;0.95;;;;;;;30.87;10.99;102060.38;1880796;76;25590;-61
2021/05/09 12:12:08;;;;;;;1.82;0.70;;;;;;;31.14;10.95;102061.83;1844078;76;25599;-60
2021/05/09 12:14:46;;;;;;;1.85;0.90;;;;;;;31.30;11.04;102054.11;1842484;76;25556;-58
2021/05/09 12:17:27;;;;;;;6.83;1.15;;;;;;;31.83;10.64;102054.09;1843988;76;25537;-60
2021/05/09 12:20:06;;;;;;;3.65;1.00;;;;;;;32.54;11.25;102042.58;1844086;76;25540;-58
2021/05/09 12:22:43;;;;;;;2.10;0.95;;;;;;;33.33;10.24;102049.03;1834835;76;25544;-59